Time;durP1;ratioP1;P1;durP2;ratioP2;P2;SDS_P1;SDS_P2;PMS_P1;PMS_P2;Temp;Humidity;BMP_temperature;BMP_pressure;BME280_temperature;BME280_humidity;BME280_pressure;Samples;Min_cycle;Max_cycle;Signal;HPM_P1;HPM_P2
2023/12/30 00:00:53;;;;;;;10.70;4.65;;;;;;;;;;5048996;28;20037;-81
2023/12/30 00:03:19;;;;;;;5.65;3.38;;;;;;;;;;5047672;28;21409;-81
2023/12/30 00:05:45;;;;;;;4.30;2.17;;;;;;;;;;5048668;28;20048;-80
2023/12/30 00:08:11;;;;;;;3.17;2.53;;;;;;;;;;5048493;28;20021;-81
2023/12/30 00:10:37;;;;;;;7.97;4.03;;;;;;;;;;5049083;28;20104;-81
2023/12/30 00:13:03;;;;;;;8.20;3.45;;;;;;;;;;5048078;28;20043;-81
2023/12/30 00:15:29;;;;;;;5.43;1.98;;;;;;;;;;5049266;28;20111;-81
2023/12/30 00:17:55;;;;;;;10.23;2.75;;;;;;;;;;5048203;28;20107;-81
2023/12/30 00:20:22;;;;;;;2.35;1.77;;;;;;;;;;5048784;28;20049;-81
2023/12/30 00:22:48;;;;;;;2.65;1.60;;;;;;;;;;5048362;28;20520;-81
2023/12/30 00:25:14;;;;;;;6.55;2.65;;;;;;;;;;5048576;28;20032;-81
2023/12/30 00:27:40;;;;;;;9.63;3.47;;;;;;;;;;5046762;28;20520;-81
2023/12/30 00:30:06;;;;;;;10.32;4.40;;;5.80;99.90;;;;;;5048417;28;20056;-81
2023/12/30 00:32:32;;;;;;;9.27;4.53;;;;;;;;;;5048182;28;20518;-81
2023/12/30 00:34:58;;;;;;;12.43;4.45;;;;;;;;;;5048954;28;20144;-81
2023/12/30 00:37:24;;;;;;;4.47;2.40;;;5.60;99.90;;;;;;5048077;28;20031;-80
2023/12/30 00:39:50;;;;;;;3.63;1.98;;;5.20;99.90;;;;;;5048367;28;20037;-81
2023/12/30 00:42:16;;;;;;;4.32;2.63;;;;;;;;;;5049315;28;20389;-81
2023/12/30 00:44:42;;;;;;;7.32;2.78;;;;;;;;;;5047954;28;20033;-81
2023/12/30 00:47:08;;;;;;;3.75;2.80;;;5.70;99.90;;;;;;5047932;28;20513;-81
2023/12/30 00:49:34;;;;;;;8.18;3.80;;;;;;;;;;5047838;28;20028;-81
2023/12/30 00:52:00;;;;;;;2.63;2.40;;;;;;;;;;5048451;28;20017;-81
2023/12/30 00:54:26;;;;;;;4.47;2.33;;;;;;;;;;5048205;28;20029;-80
2023/12/30 00:56:52;;;;;;;3.83;2.20;;;;;;;;;;5048447;28;20498;-81
2023/12/30 00:59:18;;;;;;;1.90;1.13;;;;;;;;;;5049520;28;20045;-81
2023/12/30 01:01:44;;;;;;;1.42;1.17;;;;;;;;;;5051915;28;20043;-80
2023/12/30 01:04:12;;;;;;;4.35;2.22;;;;;;;;;;5051590;28;20028;-81
2023/12/30 01:06:38;;;;;;;7.75;3.20;;;;;;;;;;5051499;28;20051;-81
2023/12/30 01:09:04;;;;;;;9.82;4.00;;;;;;;;;;5051627;28;20013;-81
2023/12/30 01:11:30;;;;;;;11.60;4.75;;;5.20;99.90;;;;;;5052012;28;20079;-81
2023/12/30 01:13:56;;;;;;;19.50;5.63;;;;;;;;;;5050018;28;20025;-81
2023/12/30 01:16:22;;;;;;;10.13;5.90;;;;;;;;;;5051924;28;20029;-81
2023/12/30 01:18:48;;;;;;;19.15;5.93;;;;;;;;;;5051214;28;20044;-80
2023/12/30 01:21:14;;;;;;;15.30;4.35;;;;;;;;;;5051439;28;20036;-81
2023/12/30 01:23:40;;;;;;;8.93;4.20;;;;;;;;;;5051854;28;20021;-81
2023/12/30 01:26:06;;;;;;;13.05;5.13;;;;;;;;;;5050814;28;20025;-81
2023/12/30 01:28:33;;;;;;;6.70;3.45;;;;;;;;;;5050789;28;20110;-81
2023/12/30 01:30:59;;;;;;;22.48;7.22;;;;;;;;;;5051346;28;20029;-81
2023/12/30 01:33:25;;;;;;;15.48;5.53;;;;;;;;;;5051537;28;20032;-80
2023/12/30 01:35:52;;;;;;;10.57;4.28;;;;;;;;;;5051062;28;20025;-81
2023/12/30 01:38:18;;;;;;;12.60;5.90;;;;;;;;;;5050019;28;20112;-81
2023/12/30 01:40:44;;;;;;;5.40;3.90;;;;;;;;;;5050838;28;20508;-81
2023/12/30 01:43:27;;;;;;;11.35;5.65;;;6.70;99.90;;;;;;5050839;28;20103;-81
2023/12/30 01:45:55;;;;;;;6.18;2.63;;;6.00;99.90;;;;;;5050676;28;20510;-80
2023/12/30 01:48:22;;;;;;;5.20;2.97;;;6.10;99.90;;;;;;5051541;28;20430;-81
2023/12/30 01:50:49;;;;;;;3.08;2.42;;;6.20;99.90;;;;;;5051098;28;20406;-81
2023/12/30 01:53:16;;;;;;;;;;;6.30;99.90;;;;;;5051677;28;20040;-81
2023/12/30 01:55:42;;;;;;;;;;;6.30;99.90;;;;;;5051283;28;19920;-81
2023/12/30 01:58:08;;;;;;;4.80;2.53;;;;;;;;;;5049357;28;19916;-80
2023/12/30 02:00:35;;;;;;;7.95;4.40;;;6.00;99.90;;;;;;5050125;28;20032;-80
2023/12/30 02:03:01;;;;;;;7.82;4.57;;;;;;;;;;5050616;28;20029;-81
2023/12/30 02:05:27;;;;;;;4.28;2.47;;;6.00;99.90;;;;;;5050142;28;20108;-80
2023/12/30 02:07:53;;;;;;;7.90;4.05;;;;;;;;;;5050705;28;20036;-81
2023/12/30 02:10:19;;;;;;;6.05;2.60;;;;;;;;;;5049909;28;20032;-81
2023/12/30 02:12:45;;;;;;;6.53;2.97;;;;;;;;;;5049687;28;20413;-81
2023/12/30 02:15:17;;;;;;;12.65;4.10;;;5.90;99.90;;;;;;5050598;28;20036;-81
2023/12/30 02:17:43;;;;;;;8.07;3.50;;;;;;;;;;5050227;28;20029;-80
2023/12/30 02:20:09;;;;;;;11.60;4.43;;;5.70;99.90;;;;;;5049945;28;20060;-81
2023/12/30 02:22:35;;;;;;;9.18;2.80;;;;;;;;;;5049994;28;20025;-81
2023/12/30 02:25:02;;;;;;;9.10;3.15;;;5.40;99.90;;;;;;5050720;28;20494;-81
2023/12/30 02:27:28;;;;;;;4.20;2.97;;;;;;;;;;5050096;28;20043;-81
2023/12/30 02:29:54;;;;;;;6.32;1.98;;;;;;;;;;5050311;28;20481;-81
2023/12/30 02:32:20;;;;;;;5.20;2.13;;;;;;;;;;5050244;28;20019;-80
2023/12/30 02:34:46;;;;;;;6.28;2.97;;;;;;;;;;5050147;28;20040;-81
2023/12/30 02:37:12;;;;;;;11.50;2.58;;;;;;;;;;5049742;28;20029;-81
2023/12/30 02:39:38;;;;;;;9.60;3.63;;;;;;;;;;5050538;28;20470;-81
2023/12/30 02:42:04;;;;;;;6.93;3.45;;;;;;;;;;5048097;28;20029;-81
2023/12/30 02:44:30;;;;;;;6.68;2.78;;;4.80;99.90;;;;;;5050283;28;20436;-81
2023/12/30 02:46:56;;;;;;;4.57;2.15;;;;;;;;;;5050181;28;20025;-80
2023/12/30 02:49:22;;;;;;;5.18;2.45;;;;;;;;;;5049821;28;20464;-81
2023/12/30 02:51:48;;;;;;;3.30;2.22;;;;;;;;;;5050237;28;20029;-81
2023/12/30 02:54:14;;;;;;;7.72;3.25;;;;;;;;;;5049862;28;20017;-80
2023/12/30 02:56:40;;;;;;;3.33;2.15;;;;;;;;;;5049619;28;20140;-80
2023/12/30 02:59:06;;;;;;;4.28;2.30;;;;;;;;;;5049284;28;20524;-81
2023/12/30 03:01:32;;;;;;;7.45;2.45;;;;;;;;;;5049602;28;20108;-81
2023/12/30 03:04:00;;;;;;;2.92;2.33;;;4.50;99.90;;;;;;5049384;28;20028;-80
2023/12/30 03:06:25;;;;;;;;;;;4.20;99.90;;;;;;5050024;28;20025;-80
2023/12/30 03:08:52;;;;;;;4.10;1.85;;;;;;;;;;5049454;28;20400;-81
2023/12/30 03:11:19;;;;;;;6.70;2.42;;;4.20;99.90;;;;;;5049751;28;20111;-81
2023/12/30 03:13:45;;;;;;;2.05;1.35;;;4.20;99.90;;;;;;5049327;28;20476;-80
2023/12/30 03:16:11;;;;;;;2.80;2.40;;;4.30;99.90;;;;;;5049645;28;20044;-81
2023/12/30 03:18:40;;;;;;;5.53;2.88;;;4.20;99.90;;;;;;5048878;28;20024;-81
2023/12/30 03:21:09;;;;;;;2.30;1.85;;;4.20;99.90;;;;;;5049124;28;20053;-81
2023/12/30 03:23:38;;;;;;;2.50;1.98;;;4.10;99.90;;;;;;5049039;28;20017;-81
2023/12/30 03:26:05;;;;;;;2.15;1.80;;;4.00;99.90;;;;;;5049228;28;20116;-81
2023/12/30 03:28:31;;;;;;;2.90;1.88;;;;;;;;;;5048917;28;20146;-81
2023/12/30 03:30:57;;;;;;;1.38;1.27;;;4.00;99.90;;;;;;5049538;28;20029;-81
2023/12/30 03:33:24;;;;;;;2.25;1.50;;;3.90;99.90;;;;;;5049224;28;20021;-81
2023/12/30 03:35:50;;;;;;;2.10;1.80;;;;;;;;;;5049040;28;20029;-81
2023/12/30 03:38:16;;;;;;;4.10;1.80;;;;;;;;;;5065171;28;20035;-80
2023/12/30 03:40:42;;;;;;;2.65;2.10;;;;;;;;;;5048574;28;20486;-81
2023/12/30 03:43:08;;;;;;;3.28;1.60;;;;;;;;;;5049169;28;20036;-80
2023/12/30 03:45:34;;;;;;;2.00;1.17;;;;;;;;;;5048989;28;20108;-81
2023/12/30 03:48:00;;;;;;;4.65;1.90;;;;;;;;;;5048015;28;20029;-81
2023/12/30 03:50:26;;;;;;;1.75;1.50;;;;;;;;;;5048600;28;20033;-81
2023/12/30 03:52:52;;;;;;;1.70;1.60;;;3.80;99.90;;;;;;5049226;28;20024;-81
2023/12/30 03:55:18;;;;;;;3.67;1.52;;;;;;;;;;5046464;28;20048;-81
2023/12/30 03:57:44;;;;;;;3.30;1.23;;;;;;;;;;5048842;28;20021;-81
2023/12/30 04:00:11;;;;;;;1.23;0.90;;;3.70;99.90;;;;;;5048807;28;20037;-81
2023/12/30 04:02:37;;;;;;;1.92;1.45;;;;;;;;;;5048301;28;20448;-81
2023/12/30 04:05:03;;;;;;;5.25;2.33;;;;;;;;;;5048385;28;20144;-81
2023/12/30 04:07:29;;;;;;;3.37;1.53;;;3.70;99.90;;;;;;5049065;28;20025;-81
2023/12/30 04:09:55;;;;;;;2.70;1.27;;;;;;;;;;5048346;28;20421;-81
2023/12/30 04:12:21;;;;;;;3.25;1.20;;;;;;;;;;5048818;28;20028;-81
2023/12/30 04:14:47;;;;;;;0.82;0.80;;;3.60;99.90;;;;;;5047156;28;20033;-81
2023/12/30 04:17:13;;;;;;;0.70;0.70;;;3.60;99.90;;;;;;5048691;28;20031;-80
2023/12/30 04:19:39;;;;;;;10.13;1.92;;;;;;;;;;5048601;28;20112;-81
2023/12/30 04:22:05;;;;;;;1.20;1.00;;;;;;;;;;5048745;28;20101;-81
2023/12/30 04:24:31;;;;;;;0.80;0.80;;;3.70;99.90;;;;;;5048868;28;20079;-81
2023/12/30 04:26:57;;;;;;;2.78;1.77;;;;;;;;;;5048463;28;20060;-81
2023/12/30 04:29:23;;;;;;;2.35;1.35;;;;;;;;;;5047355;28;20372;-81
2023/12/30 04:31:49;;;;;;;1.55;1.10;;;;;;;;;;5048212;28;20169;-81
2023/12/30 04:34:15;;;;;;;1.58;1.48;;;;;;;;;;5050230;28;20029;-81
2023/12/30 04:36:41;;;;;;;1.33;1.13;;;3.50;99.90;;;;;;5052409;28;20025;-81
2023/12/30 04:39:07;;;;;;;5.97;1.83;;;;;;;;;;5052292;28;20089;-80
2023/12/30 04:41:33;;;;;;;2.00;1.83;;;;;;;;;;5052210;28;20505;-81
2023/12/30 04:43:58;;;;;;;4.07;2.00;;;;;;;;;;5052284;28;20541;-81
2023/12/30 04:46:24;;;;;;;1.60;1.50;;;;;;;;;;5052466;28;20017;-81
2023/12/30 04:48:54;;;;;;;1.25;1.23;;;;;;;;;;5051857;28;20032;-81
2023/12/30 04:51:20;;;;;;;1.60;1.20;;;;;;;;;;5052101;28;20021;-81
2023/12/30 04:53:46;;;;;;;2.25;2.05;;;;;;;;;;5052013;28;20032;-80
2023/12/30 04:56:17;;;;;;;2.05;1.40;;;3.20;99.90;;;;;;5051871;28;20055;-81
2023/12/30 04:58:43;;;;;;;1.40;1.05;;;3.30;99.90;;;;;;5051762;28;20129;-81
2023/12/30 05:01:09;;;;;;;1.42;1.23;;;;;;;;;;5052275;28;20052;-81
2023/12/30 05:03:36;;;;;;;3.38;1.73;;;3.10;99.90;;;;;;5052133;28;20490;-81
2023/12/30 05:06:02;;;;;;;1.60;1.50;;;;;;;;;;5051334;28;20063;-81
2023/12/30 05:08:29;;;;;;;2.85;1.05;;;3.00;99.90;;;;;;5051982;28;20025;-80
2023/12/30 05:10:55;;;;;;;1.98;1.30;;;;;;;;;;5050780;28;20021;-80
2023/12/30 05:13:21;;;;;;;4.97;2.13;;;3.10;99.90;;;;;;5051910;28;20059;-81
2023/12/30 05:15:49;;;;;;;2.55;1.10;;;3.10;99.90;;;;;;5050603;28;20021;-80
2023/12/30 05:18:15;;;;;;;1.38;1.00;;;3.10;99.90;;;;;;5051695;28;20043;-81
2023/12/30 05:20:41;;;;;;;1.05;0.98;;;3.20;99.90;;;;;;5051119;28;20498;-81
2023/12/30 05:23:07;;;;;;;1.42;1.15;;;;;;;;;;5051419;28;20021;-80
2023/12/30 05:25:33;;;;;;;1.38;0.85;;;;;;;;;;5051176;28;20075;-80
2023/12/30 05:27:59;;;;;;;2.30;1.23;;;;;;;;;;5050746;28;20115;-81
2023/12/30 05:30:25;;;;;;;2.40;0.85;;;;;;;;;;5051589;28;20025;-80
2023/12/30 05:32:51;;;;;;;1.23;1.13;;;;;;;;;;5051233;28;20021;-81
2023/12/30 05:35:17;;;;;;;3.35;0.85;;;;;;;;;;5051254;28;20029;-80
2023/12/30 05:37:43;;;;;;;1.40;1.25;;;;;;;;;;5051162;28;20036;-80
2023/12/30 05:40:10;;;;;;;2.72;1.58;;;2.70;99.90;;;;;;5051547;28;20065;-80
2023/12/30 05:42:36;;;;;;;0.60;0.60;;;;;;;;;;5050466;28;20033;-80
2023/12/30 05:45:02;;;;;;;1.42;1.30;;;;;;;;;;5051243;28;20606;-81
2023/12/30 05:47:28;;;;;;;2.72;1.30;;;;;;;;;;5051287;28;20070;-81
2023/12/30 05:49:54;;;;;;;2.35;1.17;;;;;;;;;;5050561;28;20033;-81
2023/12/30 05:52:21;;;;;;;1.85;1.48;;;;;;;;;;5051323;28;20039;-81
2023/12/30 05:54:47;;;;;;;1.30;1.10;;;;;;;;;;5050648;28;20033;-81
2023/12/30 05:57:13;;;;;;;2.38;1.15;;;2.40;99.90;;;;;;5049559;28;20393;-81
2023/12/30 05:59:41;;;;;;;1.83;1.15;;;2.00;99.90;;;;;;5050340;28;20557;-80
2023/12/30 06:02:07;;;;;;;1.67;1.58;;;2.40;99.90;;;;;;5050371;28;20345;-80
2023/12/30 06:04:33;;;;;;;1.40;1.13;;;;;;;;;;5049943;28;20304;-81
2023/12/30 06:06:59;;;;;;;2.45;1.65;;;;;;;;;;5050796;28;20021;-80
2023/12/30 06:09:26;;;;;;;2.95;1.80;;;;;;;;;;5050365;28;20432;-80
2023/12/30 06:11:52;;;;;;;2.00;1.55;;;;;;;;;;5050837;28;20051;-81
2023/12/30 06:14:18;;;;;;;1.27;1.17;;;;;;;;;;5050478;28;20550;-80
2023/12/30 06:16:44;;;;;;;2.13;1.35;;;;;;;;;;5050383;28;20025;-80
2023/12/30 06:19:10;;;;;;;1.85;1.05;;;;;;;;;;5049512;28;20453;-81
2023/12/30 06:21:36;;;;;;;2.67;1.65;;;2.30;99.90;;;;;;5050572;28;20032;-81
2023/12/30 06:24:02;;;;;;;2.10;1.23;;;;;;;;;;5050013;28;20067;-80
2023/12/30 06:26:28;;;;;;;2.72;1.98;;;;;;;;;;5050460;28;20036;-80
2023/12/30 06:28:54;;;;;;;3.35;2.03;;;;;;;;;;5050318;28;20561;-80
2023/12/30 06:31:20;;;;;;;3.72;1.60;;;;;;;;;;5050176;28;20051;-80
2023/12/30 06:33:46;;;;;;;2.83;1.67;;;;;;;;;;5050111;28;20132;-80
2023/12/30 06:36:21;;;;;;;1.75;1.25;;;2.30;99.90;;;;;;5049584;28;20032;-81
2023/12/30 06:38:46;;;;;;;2.90;1.30;;;2.20;99.90;;;;;;5029997;28;20025;-80
2023/12/30 06:41:12;;;;;;;2.75;1.90;;;2.40;99.90;;;;;;5044428;28;20036;-81
2023/12/30 06:43:38;;;;;;;4.65;2.25;;;;;;;;;;5050598;28;20028;-80
2023/12/30 06:46:04;;;;;;;2.17;1.52;;;2.30;99.90;;;;;;5049615;28;20035;-80
2023/12/30 06:48:30;;;;;;;4.67;3.20;;;;;;;;;;5048289;28;20025;-81
2023/12/30 06:50:57;;;;;;;2.10;1.67;;;;;;;;;;5049739;28;20455;-80
2023/12/30 06:53:22;;;;;;;2.53;1.33;;;2.20;99.90;;;;;;5049459;28;20071;-78
2023/12/30 06:55:48;;;;;;;1.75;1.60;;;2.10;99.90;;;;;;5049665;28;20053;-79
2023/12/30 06:58:15;;;;;;;1.45;1.25;;;;;;;;;;5048945;28;20439;-79
2023/12/30 07:00:41;;;;;;;1.40;1.30;;;;;;;;;;5049410;28;20125;-79
2023/12/30 07:03:07;;;;;;;3.90;2.60;;;;;;;;;;5049627;28;20148;-79
2023/12/30 07:05:35;;;;;;;12.60;4.45;;;;;;;;;;5049669;28;20033;-79
2023/12/30 07:08:02;;;;;;;12.20;5.20;;;1.80;99.90;;;;;;5049339;28;20047;-79
2023/12/30 07:10:27;;;;;;;10.65;3.95;;;;;;;;;;5048793;28;20031;-79
2023/12/30 07:12:53;;;;;;;4.60;3.13;;;;;;;;;;5049133;28;20033;-79
2023/12/30 07:15:19;;;;;;;2.35;1.63;;;;;;;;;;5050155;28;20382;-79
2023/12/30 07:17:48;;;;;;;3.08;2.03;;;;;;;;;;5049308;28;20017;-79
2023/12/30 07:20:14;;;;;;;2.25;1.67;;;;;;;;;;5049714;28;20047;-79
2023/12/30 07:22:40;;;;;;;6.55;1.98;;;;;;;;;;5049331;28;20100;-79
2023/12/30 07:25:06;;;;;;;2.10;1.90;;;1.90;99.90;;;;;;5049391;28;20429;-80
2023/12/30 07:27:32;;;;;;;3.78;2.45;;;;;;;;;;5048249;28;20017;-80
2023/12/30 07:29:58;;;;;;;4.30;2.33;;;;;;;;;;5048189;28;20831;-79
2023/12/30 07:32:24;;;;;;;5.38;3.25;;;;;;;;;;5049006;28;20029;-79
2023/12/30 07:34:50;;;;;;;12.55;6.30;;;;;;;;;;5049468;28;20063;-79
2023/12/30 07:37:16;;;;;;;11.55;5.70;;;;;;;;;;5048575;28;20029;-79
2023/12/30 07:39:42;;;;;;;1.85;1.75;;;;;;;;;;5049354;28;20076;-79
2023/12/30 07:42:08;;;;;;;4.05;2.53;;;;;;;;;;5049066;28;20067;-79
2023/12/30 07:44:37;;;;;;;3.40;2.03;;;;;;;;;;5049152;28;20263;-79
2023/12/30 07:47:04;;;;;;;4.97;3.15;;;4.00;99.90;;;;;;5048261;28;20036;-79
2023/12/30 07:49:30;;;;;;;6.35;4.25;;;;;;;;;;5049135;28;20068;-79
2023/12/30 07:51:56;;;;;;;6.40;2.35;;;;;;;;;;5048720;28;20021;-79
2023/12/30 07:54:22;;;;;;;3.90;2.50;;;;;;;;;;5049048;28;20052;-79
2023/12/30 07:56:48;;;;;;;2.80;1.73;;;;;;;;;;5049022;28;20552;-80
2023/12/30 07:59:14;;;;;;;5.97;1.60;;;;;;;;;;5048104;28;20025;-79
2023/12/30 08:01:43;;;;;;;36.78;13.18;;;2.60;99.90;;;;;;5048941;28;20398;-79
2023/12/30 08:04:08;;;;;;;21.70;9.95;;;2.60;99.90;;;;;;5048397;28;20140;-79
2023/12/30 08:06:34;;;;;;;14.02;6.45;;;;;;;;;;5048440;28;20112;-79
2023/12/30 08:09:00;;;;;;;6.78;3.40;;;;;;;;;;5051610;28;20028;-79
2023/12/30 08:11:26;;;;;;;5.88;3.50;;;2.50;99.90;;;;;;5053008;28;20036;-79
2023/12/30 08:13:52;;;;;;;9.35;3.08;;;;;;;;;;5052534;28;20013;-79
2023/12/30 08:16:18;;;;;;;5.60;3.42;;;;;;;;;;5053285;28;20113;-79
2023/12/30 08:18:44;;;;;;;8.25;4.57;;;2.40;99.90;;;;;;5052357;28;20465;-79
2023/12/30 08:21:10;;;;;;;4.55;3.10;;;2.50;99.90;;;;;;5052813;28;20028;-80
2023/12/30 08:23:36;;;;;;;5.72;3.47;;;;;;;;;;5051978;28;20444;-79
2023/12/30 08:26:02;;;;;;;7.45;4.03;;;;;;;;;;5053196;28;20036;-80
2023/12/30 08:28:28;;;;;;;4.63;2.40;;;;;;;;;;5052533;28;20070;-80
2023/12/30 08:30:54;;;;;;;4.82;2.88;;;2.90;99.90;;;;;;5052700;28;20021;-79
2023/12/30 08:33:20;;;;;;;3.95;3.22;;;3.00;99.90;;;;;;5052251;28;20021;-79
2023/12/30 08:35:48;;;;;;;12.63;4.15;;;;;;;;;;5052390;28;20017;-79
2023/12/30 08:38:16;;;;;;;7.65;4.90;;;3.20;99.90;;;;;;5068227;28;20485;-79
2023/12/30 08:40:42;;;;;;;3.83;3.25;;;;;;;;;;5051698;28;20049;-80
2023/12/30 08:43:08;;;;;;;3.70;2.60;;;;;;;;;;5052492;28;20108;-80
2023/12/30 08:45:34;;;;;;;4.30;2.13;;;;;;;;;;5050523;28;20082;-79
2023/12/30 08:48:01;;;;;;;4.85;2.88;;;;;;;;;;5052491;28;20096;-80
2023/12/30 08:50:26;;;;;;;10.13;4.05;;;9.90;99.90;;;;;;5052082;28;20025;-81
2023/12/30 08:52:52;;;;;;;14.52;6.10;;;;;;;;;;5052441;28;20025;-81
2023/12/30 08:55:18;;;;;;;22.70;7.43;;;;;;;;;;5051798;28;20048;-81
2023/12/30 08:57:44;;;;;;;12.25;6.30;;;;;;;;;;5051519;28;20025;-81
2023/12/30 09:00:11;;;;;;;11.88;5.75;;;;;;;;;;5051598;28;20059;-80
2023/12/30 09:02:37;;;;;;;17.50;8.32;;;;;;;;;;5051937;28;20021;-80
2023/12/30 09:05:03;;;;;;;31.05;13.35;;;;;;;;;;5051809;28;20510;-81
2023/12/30 09:07:30;;;;;;;98.25;34.53;;;23.00;46.10;;;;;;5051873;28;20029;-80
2023/12/30 09:09:57;;;;;;;96.13;34.85;;;;;;;;;;5051664;28;20037;-81
2023/12/30 09:12:23;;;;;;;114.68;42.90;;;;;;;;;;5051969;28;20489;-81
2023/12/30 09:14:49;;;;;;;92.05;33.40;;;;;;;;;;5051366;28;20509;-81
2023/12/30 09:17:15;;;;;;;30.52;13.85;;;;;;;;;;5051287;28;20430;-80
2023/12/30 09:19:41;;;;;;;25.88;13.48;;;26.70;62.70;;;;;;5051233;28;20452;-81
2023/12/30 09:22:07;;;;;;;13.23;8.32;;;28.40;58.60;;;;;;5051328;28;20290;-80
2023/12/30 09:24:33;;;;;;;22.85;9.95;;;30.20;40.50;;;;;;5051806;28;20063;-80
2023/12/30 09:27:00;;;;;;;15.03;7.80;;;;;;;;;;5050756;28;20032;-81
2023/12/30 09:29:26;;;;;;;13.82;7.68;;;;;;;;;;5051615;28;20556;-81
2023/12/30 09:31:52;;;;;;;22.73;12.85;;;;;;;;;;5051117;28;20060;-81
2023/12/30 09:34:18;;;;;;;32.60;17.73;;;;;;;;;;5051657;28;20375;-81
2023/12/30 09:36:44;;;;;;;24.98;15.07;;;27.30;56.50;;;;;;5054227;28;20111;-81
2023/12/30 09:39:11;;;;;;;17.17;8.70;;;;;;;;;;5055884;28;20036;-81
2023/12/30 09:41:40;;;;;;;14.98;8.38;;;29.40;39.90;;;;;;5050974;28;20072;-80
2023/12/30 09:44:06;;;;;;;15.35;9.00;;;32.60;37.10;;;;;;5051262;28;20025;-81
2023/12/30 09:46:35;;;;;;;17.80;9.68;;;34.30;35.20;;;;;;5050791;28;20175;-81
2023/12/30 09:49:02;;;;;;;25.95;13.38;;;35.40;36.80;;;;;;5050995;28;20091;-81
2023/12/30 09:51:30;;;;;;;17.13;9.60;;;35.90;32.90;;;;;;5050855;28;20021;-81
2023/12/30 09:53:56;;;;;;;16.73;11.07;;;36.90;34.00;;;;;;5049433;28;20036;-81
2023/12/30 09:56:22;;;;;;;14.47;9.17;;;;;;;;;;5050324;28;20560;-81
2023/12/30 09:58:48;;;;;;;9.30;7.18;;;;;;;;;;5050829;28;20389;-81
2023/12/30 10:01:14;;;;;;;11.93;6.68;;;39.00;44.40;;;;;;5048413;28;20099;-81
2023/12/30 10:03:40;;;;;;;6.87;4.90;;;;;;;;;;5050995;28;20020;-82
2023/12/30 10:06:09;;;;;;;17.63;12.53;;;37.40;40.40;;;;;;5049375;28;20035;-81
2023/12/30 10:08:36;;;;;;;17.27;10.98;;;35.50;44.80;;;;;;5050465;28;20016;-81
2023/12/30 10:11:10;;;;;;;16.73;10.10;;;33.90;46.70;;;;;;5050611;28;20445;-81
2023/12/30 10:13:38;;;;;;;12.02;9.70;;;31.70;34.10;;;;;;5050321;28;20029;-81
2023/12/30 10:16:05;;;;;;;29.75;18.75;;;30.40;46.60;;;;;;5050105;28;20029;-81
2023/12/30 10:18:38;;;;;;;16.58;10.82;;;29.50;36.40;;;;;;5050220;28;20406;-81
2023/12/30 10:21:05;;;;;;;18.27;11.15;;;28.90;36.40;;;;;;5030669;28;20073;-81
2023/12/30 10:23:34;;;;;;;;;;;28.90;36.90;;;;;;5045642;28;20498;-81
2023/12/30 10:26:03;;;;;;;16.75;9.82;;;31.20;50.00;;;;;;5050126;28;20373;-81
2023/12/30 10:28:30;;;;;;;12.40;7.13;;;33.40;43.70;;;;;;5049632;28;20509;-81
2023/12/30 10:31:03;;;;;;;11.70;6.85;;;35.00;40.30;;;;;;5050115;28;20036;-81
2023/12/30 10:33:30;;;;;;;11.70;7.43;;;36.30;40.30;;;;;;5049311;28;20028;-81
2023/12/30 10:35:56;;;;;;;9.57;5.20;;;37.00;29.60;;;;;;5049841;28;20116;-81
2023/12/30 10:38:23;;;;;;;6.55;5.05;;;37.50;42.50;;;;;;5049670;28;20033;-81
2023/12/30 10:40:52;;;;;;;3.58;2.63;;;38.60;36.10;;;;;;5049929;28;20036;-81
2023/12/30 10:43:19;;;;;;;4.28;2.58;;;38.90;28.00;;;;;;5049865;28;20166;-81
2023/12/30 10:46:12;;;;;;;5.43;3.65;;;39.20;37.50;;;;;;5050108;28;20036;-81
2023/12/30 10:48:53;;;;;;;3.67;2.70;;;39.90;33.20;;;;;;5048310;28;20045;-81
2023/12/30 10:51:28;;;;;;;2.65;2.08;;;39.90;26.70;;;;;;5049801;28;20031;-81
2023/12/30 10:54:14;;;;;;;2.30;1.73;;;40.00;26.70;;;;;;5049503;28;20017;-81
2023/12/30 10:56:57;;;;;;;2.45;1.92;;;40.60;28.20;;;;;;5050079;28;20164;-81
2023/12/30 10:59:24;;;;;;;4.85;1.98;;;39.60;39.60;;;;;;5049119;28;20040;-81
2023/12/30 11:01:50;;;;;;;3.53;2.28;;;;;;;;;;5050053;28;20017;-80
2023/12/30 11:04:17;;;;;;;3.03;2.17;;;39.10;39.80;;;;;;5049515;28;20024;-81
2023/12/30 11:06:53;;;;;;;3.22;2.10;;;38.80;26.20;;;;;;5049588;28;20059;-81
2023/12/30 11:09:29;;;;;;;4.32;2.33;;;36.70;26.30;;;;;;5048784;28;20028;-81
2023/12/30 11:11:59;;;;;;;2.85;2.45;;;35.70;41.80;;;;;;5049706;28;20068;-80
2023/12/30 11:14:25;;;;;;;4.55;2.20;;;35.10;41.80;;;;;;5047876;28;20436;-80
2023/12/30 11:16:51;;;;;;;5.93;2.35;;;;;;;;;;5049786;28;20025;-80
2023/12/30 11:19:32;;;;;;;2.03;1.67;;;32.90;29.70;;;;;;5049140;28;20052;-80
2023/12/30 11:22:05;;;;;;;2.75;1.63;;;31.90;30.20;;;;;;5040085;28;20074;-81
2023/12/30 11:24:31;;;;;;;3.63;1.80;;;30.90;41.60;;;;;;5048957;28;20401;-81
2023/12/30 11:26:58;;;;;;;2.30;1.80;;;29.40;44.80;;;;;;5038386;28;20021;-81
2023/12/30 11:29:25;;;;;;;2.45;1.40;;;28.40;30.00;;;;;;5048453;28;20057;-81
2023/12/30 11:31:51;;;;;;;;;;;28.40;30.40;;;;;;5049754;28;20021;-81
2023/12/30 11:34:17;;;;;;;2.17;1.65;;;;;;;;;;5049082;28;19912;-81
2023/12/30 11:36:46;;;;;;;2.35;1.90;;;26.20;33.80;;;;;;5052331;28;20125;-80
2023/12/30 11:39:17;;;;;;;3.03;1.55;;;26.00;33.80;;;;;;5069274;28;20074;-81
2023/12/30 11:41:43;;;;;;;4.63;1.90;;;;;;;;;;5049096;28;20033;-81
2023/12/30 11:44:09;;;;;;;3.13;1.35;;;;;;;;;;5047962;28;20028;-81
2023/12/30 11:46:36;;;;;;;6.90;1.48;;;;;;;;;;5048652;28;20138;-81
2023/12/30 11:49:02;;;;;;;4.03;2.20;;;;;;;;;;5048791;28;20028;-81
2023/12/30 11:51:29;;;;;;;3.65;1.88;;;22.80;48.70;;;;;;5049258;28;20271;-81
2023/12/30 11:53:56;;;;;;;1.98;1.33;;;;;;;;;;5048992;28;20060;-81
2023/12/30 11:56:22;;;;;;;2.80;1.40;;;21.90;38.20;;;;;;5048496;28;20045;-81
2023/12/30 11:58:52;;;;;;;1.88;1.20;;;21.70;38.60;;;;;;5048683;28;20497;-81
2023/12/30 12:01:18;;;;;;;1.77;1.30;;;21.50;39.00;;;;;;5048690;28;20056;-81
2023/12/30 12:03:45;;;;;;;1.63;0.90;;;;;;;;;;5049307;28;20032;-81
2023/12/30 12:06:11;;;;;;;1.27;0.95;;;;;;;;;;5048025;28;20317;-81
2023/12/30 12:08:38;;;;;;;6.82;3.25;;;;;;;;;;5048509;28;20394;-81
2023/12/30 12:11:04;;;;;;;;;;;21.00;39.60;;;;;;5049372;28;20025;-81
2023/12/30 12:13:30;;;;;;;4.85;2.80;;;;;;;;;;5049339;28;19905;-81
2023/12/30 12:15:56;;;;;;;5.60;1.50;;;20.20;48.00;;;;;;5048629;28;20394;-81
2023/12/30 12:18:23;;;;;;;2.60;1.38;;;;;;;;;;5049040;28;20448;-81
2023/12/30 12:20:49;;;;;;;2.60;1.95;;;20.00;40.80;;;;;;5048356;28;20576;-80
2023/12/30 12:23:18;;;;;;;2.90;1.40;;;20.00;59.10;;;;;;5047384;28;20021;-80
2023/12/30 12:25:45;;;;;;;2.10;1.00;;;19.90;40.90;;;;;;5048423;28;20033;-81
2023/12/30 12:28:14;;;;;;;4.78;2.35;;;19.60;41.10;;;;;;5048544;28;20041;-81
2023/12/30 12:30:40;;;;;;;2.70;1.27;;;;;;;;;;5049161;28;20036;-80
2023/12/30 12:33:08;;;;;;;1.42;0.90;;;19.10;41.40;;;;;;5048869;28;20029;-80
2023/12/30 12:35:34;;;;;;;2.63;0.75;;;;;;;;;;5028685;28;20045;-81
2023/12/30 12:38:00;;;;;;;3.13;0.90;;;;;;;;;;5042273;28;20035;-81
2023/12/30 12:40:26;;;;;;;3.42;2.25;;;;;;;;;;5049040;28;20033;-81
2023/12/30 12:42:53;;;;;;;5.03;2.42;;;18.90;41.60;;;;;;5047872;28;20028;-81
2023/12/30 12:45:19;;;;;;;0.75;0.73;;;;;;;;;;5048687;28;20032;-81
2023/12/30 12:47:45;;;;;;;2.03;0.70;;;;;;;;;;5048319;28;20079;-80
2023/12/30 12:50:12;;;;;;;1.20;0.70;;;;;;;;;;5048213;28;20028;-81
2023/12/30 12:52:38;;;;;;;0.68;0.65;;;;;;;;;;5048026;28;20329;-80
2023/12/30 12:55:04;;;;;;;2.25;1.00;;;;;;;;;;5049339;28;20059;-81
2023/12/30 12:57:31;;;;;;;2.47;1.38;;;;;;;;;;5051862;28;20036;-80
2023/12/30 12:59:57;;;;;;;1.60;0.97;;;;;;;;;;5051854;28;20469;-81
2023/12/30 13:02:27;;;;;;;0.88;0.70;;;;;;;;;;5051902;28;20649;-81
2023/12/30 13:04:54;;;;;;;3.47;1.40;;;;;;;;;;5051691;28;20098;-81
2023/12/30 13:07:20;;;;;;;13.30;5.40;;;18.60;48.60;;;;;;5051666;28;20388;-81
2023/12/30 13:09:58;;;;;;;2.90;2.15;;;;;;;;;;5050303;28;20104;-81
2023/12/30 13:12:24;;;;;;;20.67;9.85;;;;;;;;;;5052034;28;20033;-81
2023/12/30 13:14:52;;;;;;;10.38;5.43;;;;;;;;;;5051589;28;20516;-81
2023/12/30 13:17:18;;;;;;;1.70;1.48;;;;;;;;;;5051859;28;20557;-81
2023/12/30 13:19:44;;;;;;;1.63;1.10;;;;;;;;;;5050592;28;20068;-81
2023/12/30 13:22:13;;;;;;;0.47;0.47;;;18.00;60.20;;;;;;5051797;28;20028;-80
2023/12/30 13:24:39;;;;;;;1.27;0.90;;;;;;;;;;5051374;28;20120;-82
2023/12/30 13:27:09;;;;;;;0.60;0.60;;;17.70;41.60;;;;;;5051126;28;20025;-80
2023/12/30 13:29:35;;;;;;;1.15;0.80;;;;;;;;;;5051547;28;20104;-81
2023/12/30 13:32:01;;;;;;;1.80;1.00;;;;;;;;;;5051495;28;20086;-80
2023/12/30 13:34:31;;;;;;;1.65;1.35;;;;;;;;;;5049713;28;20048;-80
2023/12/30 13:37:04;;;;;;;0.52;0.50;;;17.50;42.20;;;;;;5051655;28;20044;-81
2023/12/30 13:39:30;;;;;;;1.02;0.65;;;;;;;;;;5051018;28;20116;-80
2023/12/30 13:41:57;;;;;;;1.88;0.90;;;;;;;;;;5051148;28;20167;-80
2023/12/30 13:44:23;;;;;;;0.93;0.80;;;;;;;;;;5050990;28;20128;-80
2023/12/30 13:51:55;;;;;;;1.02;0.60;;;;;;;;;;5040607;28;20114;-80
2023/12/30 13:54:22;;;;;;;3.63;1.35;;;;;;;;;;5051496;28;20029;-81
2023/12/30 13:56:59;;;;;;;;;;;16.40;43.80;;;;;;5051321;28;20077;-81
2023/12/30 13:59:25;;;;;;;;;;;16.20;44.00;;;;;;5049750;28;19975;-81